Time;durP1;ratioP1;P1;durP2;ratioP2;P2;SDS_P1;SDS_P2;PMS_P1;PMS_P2;Temp;Humidity;BMP_temperature;BMP_pressure;BME280_temperature;BME280_humidity;BME280_pressure;Samples;Min_cycle;Max_cycle;Signal;HPM_P1;HPM_P2
2022/03/20 00:00:03;;;;;;;6.22;0.40;;;;;;;4.93;100.00;102369.19;4948857;28;20126;-56
2022/03/20 00:02:32;;;;;;;4.90;0.43;;;;;;;4.93;100.00;102382.34;4953194;28;20027;-55
2022/03/20 00:04:58;;;;;;;11.25;2.28;;;;;;;4.81;100.00;102380.56;4948704;28;20042;-56
2022/03/20 00:07:23;;;;;;;5.25;1.05;;;;;;;4.71;100.00;102369.84;4965545;28;20046;-58
2022/03/20 00:09:52;;;;;;;10.07;1.08;;;;;;;4.68;100.00;102369.22;4948087;28;20082;-55
2022/03/20 00:12:17;;;;;;;4.43;1.10;;;;;;;4.63;100.00;102372.16;4947280;28;20046;-57
2022/03/20 00:14:44;;;;;;;5.63;0.90;;;;;;;4.80;100.00;102363.97;4951342;28;20027;-59
2022/03/20 00:17:09;;;;;;;6.32;0.98;;;;;;;4.76;100.00;102367.72;4952848;28;20053;-55
2022/03/20 00:19:34;;;;;;;5.78;0.65;;;;;;;4.81;100.00;102367.41;4956904;28;20413;-56
2022/03/20 00:22:00;;;;;;;2.45;0.63;;;;;;;4.77;100.00;102363.31;4959034;28;20388;-58
2022/03/20 00:24:25;;;;;;;1.88;0.65;;;;;;;4.75;100.00;102346.81;4959887;28;20041;-60
2022/03/20 00:26:56;;;;;;;6.03;0.70;;;;;;;4.78;100.00;102355.34;4949702;28;20376;-57
2022/03/20 00:29:25;;;;;;;11.43;0.80;;;;;;;4.73;100.00;102349.56;4950835;28;20512;-57
2022/03/20 00:31:51;;;;;;;14.68;1.85;;;;;;;4.66;100.00;102353.56;4954160;28;20110;-52
2022/03/20 00:34:16;;;;;;;16.05;1.90;;;;;;;4.70;100.00;102355.03;4950472;28;20113;-56
2022/03/20 00:36:42;;;;;;;2.35;0.40;;;;;;;4.59;100.00;102349.66;4954703;28;20126;-59
2022/03/20 00:39:07;;;;;;;3.85;0.88;;;;;;;4.66;100.00;102355.34;4961346;28;20034;-55
2022/03/20 00:41:32;;;;;;;9.45;0.60;;;;;;;4.62;100.00;102351.22;4949281;28;20397;-60
2022/03/20 00:43:59;;;;;;;2.28;0.38;;;;;;;4.43;100.00;102347.25;4950022;28;20039;-58
2022/03/20 00:46:24;;;;;;;2.85;0.38;;;;;;;4.32;100.00;102355.88;4951656;28;20035;-55
2022/03/20 00:48:50;;;;;;;3.10;0.35;;;;;;;4.35;100.00;102350.41;4949656;28;20039;-55
2022/03/20 00:51:15;;;;;;;2.30;0.50;;;;;;;4.41;100.00;102349.13;4949344;28;20561;-54
2022/03/20 00:53:41;;;;;;;1.10;0.10;;;;;;;4.23;100.00;102353.03;4948872;28;20031;-52
2022/03/20 00:56:07;;;;;;;2.13;0.40;;;;;;;4.22;100.00;102344.31;4952325;28;20483;-54
2022/03/20 00:58:33;;;;;;;1.45;0.17;;;;;;;4.19;100.00;102346.31;4953763;28;20875;-60
2022/03/20 01:00:59;;;;;;;4.97;0.47;;;;;;;4.04;100.00;102351.63;4955422;28;20149;-54
2022/03/20 01:03:24;;;;;;;3.63;0.60;;;;;;;4.06;100.00;102346.28;4949708;28;20043;-58
2022/03/20 01:05:49;;;;;;;9.43;0.40;;;;;;;4.24;100.00;102338.97;4952838;28;20030;-56
2022/03/20 01:08:15;;;;;;;2.28;0.60;;;;;;;4.29;100.00;102326.38;4960435;28;20031;-57
2022/03/20 01:10:41;;;;;;;3.55;0.73;;;;;;;4.11;100.00;102337.16;4954913;28;20114;-55
2022/03/20 01:13:06;;;;;;;4.68;0.45;;;;;;;4.03;100.00;102333.38;4948937;28;20174;-56
2022/03/20 01:15:32;;;;;;;2.17;0.40;;;;;;;4.02;100.00;102329.91;4952362;28;20074;-55
2022/03/20 01:17:58;;;;;;;3.42;0.85;;;;;;;4.18;100.00;102321.81;4957801;28;20046;-58
2022/03/20 01:20:23;;;;;;;1.85;0.22;;;;;;;4.20;100.00;102321.72;4953659;28;20033;-54
2022/03/20 01:22:49;;;;;;;2.40;0.75;;;;;;;4.08;100.00;102319.00;4946626;28;20043;-54
2022/03/20 01:25:15;;;;;;;7.68;1.45;;;;;;;3.92;100.00;102310.44;4950892;28;20488;-52
2022/03/20 01:27:41;;;;;;;3.03;0.30;;;;;;;3.86;100.00;102310.88;4953572;28;20132;-54
2022/03/20 01:30:07;;;;;;;1.25;0.55;;;;;;;3.82;100.00;102296.25;4955285;28;20463;-55
2022/03/20 01:32:33;;;;;;;3.72;1.08;;;;;;;3.88;100.00;102291.47;4952376;28;20031;-57
2022/03/20 01:34:58;;;;;;;1.52;0.10;;;;;;;3.87;100.00;102294.19;4958519;28;20109;-55
2022/03/20 01:37:23;;;;;;;4.32;0.35;;;;;;;3.75;100.00;102292.41;4957142;28;20478;-57
2022/03/20 01:39:49;;;;;;;7.80;0.60;;;;;;;3.69;100.00;102291.84;4952297;28;20023;-57
2022/03/20 01:42:15;;;;;;;2.50;0.20;;;;;;;3.59;100.00;102287.28;4951076;28;20073;-57
2022/03/20 01:44:40;;;;;;;5.68;1.63;;;;;;;3.47;100.00;102284.56;4958215;28;20027;-58
2022/03/20 01:47:08;;;;;;;4.43;0.32;;;;;;;3.41;100.00;102281.50;4954432;28;20031;-58
2022/03/20 01:49:34;;;;;;;1.58;0.43;;;;;;;3.49;100.00;102276.59;4950912;28;20058;-57
2022/03/20 01:52:11;;;;;;;6.93;0.30;;;;;;;3.48;100.00;102274.91;4949012;28;20031;-59
2022/03/20 01:54:47;;;;;;;6.53;0.75;;;;;;;3.35;100.00;102266.16;4954683;28;20054;-59
2022/03/20 01:57:21;;;;;;;4.20;1.00;;;;;;;3.27;100.00;102259.63;4948621;28;20090;-58
2022/03/20 01:59:51;;;;;;;6.20;0.90;;;;;;;3.26;100.00;102264.97;4950356;28;20037;-57
2022/03/20 02:02:18;;;;;;;3.70;0.20;;;;;;;3.18;100.00;102256.78;4965494;28;20089;-56
2022/03/20 02:04:44;;;;;;;0.63;0.28;;;;;;;3.33;100.00;102252.28;4953875;28;20023;-55
2022/03/20 02:07:09;;;;;;;3.63;0.43;;;;;;;3.45;100.00;102248.88;4951906;28;20532;-59
2022/03/20 02:09:36;;;;;;;5.88;0.30;;;;;;;3.51;100.00;102256.31;4949753;28;20483;-58
2022/03/20 02:12:03;;;;;;;2.90;0.45;;;;;;;3.49;100.00;102247.75;4960735;28;20082;-58
2022/03/20 02:14:28;;;;;;;5.80;0.80;;;;;;;3.48;100.00;102243.41;4956968;28;20052;-58
2022/03/20 02:16:55;;;;;;;1.48;0.43;;;;;;;3.36;100.00;102237.22;4950881;28;20031;-57
2022/03/20 02:19:21;;;;;;;2.88;0.82;;;;;;;3.36;100.00;102239.00;4948142;28;20075;-58
2022/03/20 02:21:49;;;;;;;6.90;0.40;;;;;;;3.26;100.00;102228.28;4957912;28;20031;-57
2022/03/20 02:24:33;;;;;;;2.38;0.38;;;;;;;3.27;100.00;102225.53;4959558;28;20093;-57
2022/03/20 02:27:23;;;;;;;6.20;0.57;;;;;;;3.31;100.00;102220.13;4964629;28;20042;-58
2022/03/20 02:30:00;;;;;;;5.65;0.30;;;;;;;3.22;100.00;102225.00;4946373;28;20535;-57
2022/03/20 02:32:28;;;;;;;4.28;0.82;;;;;;;3.12;100.00;102218.69;4951869;28;20059;-57
2022/03/20 02:34:59;;;;;;;7.45;0.45;;;;;;;3.02;100.00;102214.97;4955367;28;20038;-58
2022/03/20 02:37:26;;;;;;;5.20;0.60;;;;;;;3.04;100.00;102213.09;4957905;28;20031;-58
2022/03/20 02:39:56;;;;;;;8.73;0.47;;;;;;;3.11;100.00;102209.16;4966197;28;20154;-58
2022/03/20 02:42:21;;;;;;;2.22;0.35;;;;;;;3.02;100.00;102210.59;4964617;28;20043;-59
2022/03/20 02:44:48;;;;;;;5.22;1.75;;;;;;;3.03;100.00;102207.03;4957930;28;20082;-57
2022/03/20 02:47:14;;;;;;;3.45;0.90;;;;;;;2.99;100.00;102200.28;4952257;28;20031;-59
2022/03/20 02:49:41;;;;;;;3.63;1.98;;;;;;;2.90;100.00;102200.06;4957980;28;20042;-57
2022/03/20 02:52:07;;;;;;;5.25;0.65;;;;;;;2.80;100.00;102203.25;4962213;28;20780;-55
2022/03/20 02:54:32;;;;;;;1.50;0.28;;;;;;;2.82;100.00;102196.16;4957930;28;20488;-55
2022/03/20 02:56:57;;;;;;;3.70;0.80;;;;;;;2.93;100.00;102202.47;4951546;28;20040;-58
2022/03/20 02:59:23;;;;;;;5.80;0.45;;;;;;;2.89;100.00;102200.97;4950877;28;20046;-59
2022/03/20 03:01:49;;;;;;;1.42;0.32;;;;;;;2.87;100.00;102190.63;4961412;28;20023;-57
2022/03/20 03:04:14;;;;;;;11.98;2.25;;;;;;;2.87;100.00;102184.53;4958276;28;20497;-60
2022/03/20 03:06:39;;;;;;;6.50;0.98;;;;;;;2.81;100.00;102189.25;4956053;28;20199;-58
2022/03/20 03:11:49;;;;;;;4.28;0.75;;;;;;;2.82;100.00;102182.22;4957836;28;20089;-58
2022/03/20 03:16:58;;;;;;;5.75;0.85;;;;;;;2.80;100.00;102184.09;4957516;28;20037;-58
2022/03/20 03:19:23;;;;;;;3.80;1.35;;;;;;;2.82;100.00;102185.66;4952362;28;20031;-58
2022/03/20 03:21:49;;;;;;;19.77;1.42;;;;;;;2.81;100.00;102184.00;4953330;28;20106;-57
2022/03/20 03:24:14;;;;;;;5.10;0.57;;;;;;;2.79;100.00;102180.63;4954441;28;20027;-58
2022/03/20 03:26:40;;;;;;;4.55;0.70;;;;;;;2.80;100.00;102174.44;4954449;28;20126;-58
2022/03/20 03:29:05;;;;;;;3.88;0.93;;;;;;;2.77;100.00;102177.28;4956554;28;20051;-58
2022/03/20 03:31:31;;;;;;;9.52;1.05;;;;;;;2.83;100.00;102169.00;4959518;28;20079;-55
2022/03/20 03:36:41;;;;;;;1.88;0.88;;;;;;;2.77;100.00;102172.03;4965549;28;20562;-57
2022/03/20 03:39:08;;;;;;;4.38;1.13;;;;;;;2.74;100.00;102168.78;4966388;28;20089;-55
2022/03/20 03:41:33;;;;;;;4.72;0.75;;;;;;;2.71;100.00;102161.97;4956025;28;20118;-56
2022/03/20 03:43:58;;;;;;;9.10;1.55;;;;;;;2.69;100.00;102168.22;4953466;28;20126;-54
2022/03/20 03:46:24;;;;;;;3.83;0.38;;;;;;;2.66;100.00;102166.66;4965712;28;20168;-52
2022/03/20 03:48:49;;;;;;;2.47;0.50;;;;;;;2.67;100.00;102168.31;4956823;28;20063;-54
2022/03/20 03:51:14;;;;;;;10.57;0.98;;;;;;;2.65;100.00;102169.34;4955445;28;20135;-55
2022/03/20 03:53:40;;;;;;;4.10;0.60;;;;;;;2.58;100.00;102175.00;4955112;28;20031;-52
2022/03/20 03:56:06;;;;;;;10.10;0.70;;;;;;;2.54;100.00;102176.13;4964674;28;20114;-55
2022/03/20 03:58:32;;;;;;;2.75;0.50;;;;;;;2.52;100.00;102166.69;4960037;28;20072;-53
2022/03/20 04:00:57;;;;;;;5.88;1.40;;;;;;;2.48;100.00;102165.19;4960076;28;20031;-58
2022/03/20 04:03:23;;;;;;;2.10;1.25;;;;;;;2.50;100.00;102169.38;4959065;28;20053;-55
2022/03/20 04:05:48;;;;;;;4.97;0.98;;;;;;;2.45;100.00;102158.34;4961054;28;20038;-57
2022/03/20 04:08:15;;;;;;;5.90;0.90;;;;;;;2.44;100.00;102151.44;4962092;28;20070;-59
2022/03/20 04:10:41;;;;;;;8.95;1.95;;;;;;;2.47;100.00;102163.50;4960553;28;20039;-57
2022/03/20 04:13:07;;;;;;;8.05;1.58;;;;;;;2.43;100.00;102148.91;4955298;28;20369;-58
2022/03/20 04:15:32;;;;;;;5.90;0.70;;;;;;;2.50;100.00;102152.84;4962572;28;20038;-59
2022/03/20 04:18:00;;;;;;;3.58;0.47;;;;;;;2.46;100.00;102146.13;4959906;28;20042;-54
2022/03/20 04:20:25;;;;;;;5.10;0.70;;;;;;;2.39;100.00;102149.13;4951843;28;20492;-58
2022/03/20 04:25:39;;;;;;;1.55;0.38;;;;;;;2.43;100.00;102138.44;4964451;28;20527;-58
2022/03/20 04:28:05;;;;;;;9.95;0.50;;;;;;;2.32;100.00;102147.84;4957918;28;20128;-58
2022/03/20 04:30:32;;;;;;;2.65;0.47;;;;;;;2.21;100.00;102146.81;4954472;28;20110;-58
2022/03/20 04:32:58;;;;;;;8.68;1.80;;;;;;;2.20;100.00;102142.53;4950416;28;20051;-54
2022/03/20 04:35:23;;;;;;;5.65;1.35;;;;;;;2.19;100.00;102133.81;4950865;28;20041;-56
2022/03/20 04:37:55;;;;;;;4.18;0.70;;;;;;;2.23;100.00;102140.56;4949620;28;20366;-59
2022/03/20 04:40:21;;;;;;;7.53;0.80;;;;;;;2.17;100.00;102128.69;4949849;28;20031;-59
2022/03/20 04:42:47;;;;;;;3.10;0.68;;;;;;;2.37;100.00;102135.28;4947755;28;20054;-56
2022/03/20 04:45:13;;;;;;;2.53;0.73;;;;;;;2.36;100.00;102127.53;4948941;28;20027;-57
2022/03/20 04:58:35;;;;;;;1.80;1.02;;;;;;;2.39;100.00;102130.78;4949004;28;20129;-58
2022/03/20 05:01:01;;;;;;;7.97;1.88;;;;;;;2.40;100.00;102129.88;4950547;28;20469;-55
2022/03/20 05:03:27;;;;;;;6.72;0.52;;;;;;;2.30;100.00;102123.53;4960259;28;20031;-59
2022/03/20 05:05:53;;;;;;;3.25;0.32;;;;;;;2.19;100.00;102133.81;4949081;28;20479;-59
2022/03/20 05:08:19;;;;;;;1.52;0.40;;;;;;;2.14;100.00;102133.25;4951502;28;20027;-58
2022/03/20 05:13:28;;;;;;;15.43;1.70;;;;;;;2.27;100.00;102118.50;4949252;28;20448;-57
2022/03/20 05:15:57;;;;;;;3.15;0.60;;;;;;;2.28;100.00;102135.88;4949535;28;20065;-56
2022/03/20 05:18:23;;;;;;;3.03;0.32;;;;;;;2.22;100.00;102124.94;4951876;28;20022;-59
2022/03/20 05:20:51;;;;;;;1.15;0.40;;;;;;;2.14;100.00;102120.19;4949031;28;20046;-57
2022/03/20 05:23:16;;;;;;;1.70;0.35;;;;;;;2.16;100.00;102128.78;4951308;28;20110;-59
2022/03/20 05:25:42;;;;;;;4.95;0.45;;;;;;;2.15;100.00;102121.88;4948916;28;20429;-56
2022/03/20 05:28:08;;;;;;;7.57;0.98;;;;;;;2.11;100.00;102112.53;4949372;28;20374;-60
2022/03/20 05:30:33;;;;;;;3.17;1.38;;;;;;;2.09;100.00;102122.25;4950881;28;20031;-60
2022/03/20 05:32:59;;;;;;;3.03;1.55;;;;;;;2.09;100.00;102117.00;4956722;28;20765;-59
2022/03/20 05:35:25;;;;;;;6.45;0.95;;;;;;;2.04;100.00;102124.31;4951171;28;20098;-54
2022/03/20 05:37:50;;;;;;;2.28;1.05;;;;;;;1.98;100.00;102128.16;4947635;28;20496;-56
2022/03/20 05:40:16;;;;;;;0.95;0.45;;;;;;;1.96;100.00;102124.78;4954307;28;20038;-57
2022/03/20 05:42:42;;;;;;;2.38;0.43;;;;;;;2.04;100.00;102129.53;4951772;28;20035;-59
2022/03/20 05:45:10;;;;;;;6.40;0.57;;;;;;;2.06;100.00;102122.44;4956596;28;20054;-58
2022/03/20 05:47:37;;;;;;;8.40;1.95;;;;;;;2.04;100.00;102124.31;4962909;28;20046;-60
2022/03/20 05:50:05;;;;;;;10.60;1.85;;;;;;;2.03;100.00;102122.63;4948809;28;20032;-57
2022/03/20 05:52:31;;;;;;;9.10;0.88;;;;;;;2.03;100.00;102126.09;4962305;28;20370;-55
2022/03/20 05:55:00;;;;;;;4.18;1.70;;;;;;;2.07;100.00;102124.13;4958533;28;20054;-59
2022/03/20 06:00:28;;;;;;;1.75;0.73;;;;;;;1.80;100.00;102122.28;4954885;28;20045;-57
2022/03/20 06:02:54;;;;;;;10.05;1.35;;;;;;;1.85;100.00;102117.59;4954601;28;20448;-58
2022/03/20 06:05:20;;;;;;;8.40;0.80;;;;;;;1.88;100.00;102117.41;4951168;28;20038;-59
2022/03/20 06:07:47;;;;;;;10.30;0.80;;;;;;;1.95;100.00;102117.88;4949243;28;20043;-59
2022/03/20 06:10:14;;;;;;;2.80;1.02;;;;;;;1.96;100.00;102123.03;4952632;28;20128;-54
2022/03/20 06:12:40;;;;;;;4.88;1.13;;;;;;;1.92;100.00;102120.69;4957896;28;20038;-57
2022/03/20 06:15:09;;;;;;;5.85;0.57;;;;;;;1.87;100.00;102126.19;4950217;28;20697;-55
2022/03/20 06:17:39;;;;;;;2.78;0.70;;;;;;;1.79;100.00;102120.59;4946458;28;20031;-57
2022/03/20 06:20:09;;;;;;;3.95;0.50;;;;;;;1.78;100.00;102125.91;4947988;28;20066;-57
2022/03/20 06:22:35;;;;;;;4.07;1.58;;;;;;;1.77;100.00;102132.09;4953306;28;20050;-57
2022/03/20 06:25:03;;;;;;;16.05;2.47;;;;;;;1.74;100.00;102125.28;4947762;28;20517;-59
2022/03/20 06:27:28;;;;;;;2.42;0.57;;;;;;;1.83;100.00;102136.94;4945453;28;20032;-57
2022/03/20 06:29:55;;;;;;;1.70;0.52;;;;;;;1.89;100.00;102137.41;4948443;28;20453;-58
2022/03/20 06:32:20;;;;;;;11.95;2.38;;;;;;;1.95;100.00;102129.19;4948085;28;20530;-59
2022/03/20 06:34:45;;;;;;;3.13;0.93;;;;;;;1.89;100.00;102128.72;4946695;28;20509;-58
2022/03/20 06:37:11;;;;;;;2.50;1.20;;;;;;;1.81;100.00;102126.59;4945383;28;20043;-58
2022/03/20 06:39:36;;;;;;;2.83;1.27;;;;;;;1.69;100.00;102130.78;4948286;28;20086;-57
2022/03/20 06:42:02;;;;;;;2.20;0.90;;;;;;;1.71;100.00;102133.31;4948043;28;20118;-59
2022/03/20 06:44:27;;;;;;;3.72;0.75;;;;;;;1.92;100.00;102134.59;4946449;28;20031;-61
2022/03/20 06:46:54;;;;;;;1.98;0.68;;;;;;;1.99;100.00;102136.84;4948213;28;20047;-61
2022/03/20 06:49:20;;;;;;;2.38;0.95;;;;;;;2.00;100.00;102134.13;4951351;28;20035;-59
2022/03/20 06:51:46;;;;;;;5.70;1.27;;;;;;;2.08;100.00;102131.88;4948084;28;20031;-58
2022/03/20 06:54:12;;;;;;;8.35;1.50;;;;;;;2.08;100.00;102141.50;4960996;28;20042;-58
2022/03/20 06:56:37;;;;;;;4.38;1.20;;;;;;;2.20;100.00;102134.69;4960861;28;20035;-60
2022/03/20 06:59:02;;;;;;;12.75;2.20;;;;;;;2.24;100.00;102137.00;4950618;28;20598;-59
2022/03/20 07:01:28;;;;;;;5.50;2.67;;;;;;;2.22;100.00;102133.66;4959323;28;20034;-59
2022/03/20 07:03:54;;;;;;;3.45;1.48;;;;;;;2.14;100.00;102135.88;4957288;28;20082;-58
2022/03/20 07:06:20;;;;;;;5.18;1.13;;;;;;;2.15;100.00;102129.72;4960532;28;20459;-57
2022/03/20 07:08:45;;;;;;;7.78;1.00;;;;;;;2.33;100.00;102140.81;4952348;28;20073;-57
2022/03/20 07:11:11;;;;;;;4.80;0.85;;;;;;;2.34;100.00;102122.38;4954605;28;20589;-57
2022/03/20 07:13:48;;;;;;;3.92;1.23;;;;;;;2.29;100.00;102126.25;4958304;28;20058;-58
2022/03/20 07:16:14;;;;;;;4.07;2.13;;;;;;;2.35;100.00;102126.72;4947933;28;20035;-57
2022/03/20 07:18:41;;;;;;;9.20;2.47;;;;;;;2.45;100.00;102123.47;4950652;28;20470;-59
2022/03/20 07:21:07;;;;;;;6.95;1.38;;;;;;;2.48;100.00;102120.66;4946338;28;20038;-59
2022/03/20 07:23:32;;;;;;;8.63;2.90;;;;;;;2.45;100.00;102124.31;4952590;28;20027;-59
2022/03/20 07:31:26;;;;;;;11.60;1.33;;;;;;;2.83;100.00;102119.22;4947445;28;20089;-58
2022/03/20 07:33:51;;;;;;;3.33;1.13;;;;;;;2.95;100.00;102124.63;4948919;28;20295;-56
2022/03/20 07:36:19;;;;;;;2.53;1.23;;;;;;;3.11;100.00;102116.56;4949477;28;20038;-58
2022/03/20 07:38:45;;;;;;;4.03;1.40;;;;;;;3.21;100.00;102123.72;4952491;28;20505;-58
2022/03/20 07:41:11;;;;;;;6.18;1.17;;;;;;;3.30;100.00;102121.41;4947792;28;20057;-59
2022/03/20 07:43:36;;;;;;;2.28;0.88;;;;;;;3.35;100.00;102124.56;4949295;28;20039;-55
2022/03/20 07:46:01;;;;;;;3.05;1.10;;;;;;;3.47;100.00;102128.97;4947604;28;20091;-59
2022/03/20 07:48:27;;;;;;;7.82;2.60;;;;;;;3.58;100.00;102121.22;4945955;28;20082;-59
2022/03/20 07:50:53;;;;;;;2.47;1.55;;;;;;;3.59;100.00;102128.16;4947210;28;20461;-60
2022/03/20 07:53:18;;;;;;;5.55;1.77;;;;;;;3.63;100.00;102118.28;4952140;28;20042;-59
2022/03/20 07:55:45;;;;;;;5.72;1.63;;;;;;;3.71;100.00;102126.44;4947714;28;20031;-58
2022/03/20 07:58:12;;;;;;;6.22;1.20;;;;;;;3.85;100.00;102122.91;4947556;28;20122;-58
2022/03/20 08:00:39;;;;;;;5.47;0.88;;;;;;;4.03;100.00;102118.97;4947907;28;20374;-55
2022/03/20 08:03:05;;;;;;;3.65;1.30;;;;;;;4.15;100.00;102115.44;4948918;28;20114;-56
2022/03/20 08:05:30;;;;;;;4.28;1.60;;;;;;;4.43;100.00;102115.28;4951755;28;20031;-58
2022/03/20 08:07:56;;;;;;;17.80;2.17;;;;;;;4.72;100.00;102127.13;4945566;28;20031;-55
2022/03/20 08:10:21;;;;;;;6.75;1.80;;;;;;;4.77;100.00;102116.28;4949555;28;20095;-59
2022/03/20 08:12:48;;;;;;;4.13;1.50;;;;;;;4.76;100.00;102111.97;4947661;28;20170;-58
2022/03/20 08:15:17;;;;;;;7.68;1.45;;;;;;;4.88;100.00;102118.09;4949102;28;20325;-53
2022/03/20 08:17:44;;;;;;;4.15;1.63;;;;;;;4.96;100.00;102113.97;4954859;28;20038;-57
2022/03/20 08:20:10;;;;;;;9.60;1.63;;;;;;;5.03;100.00;102106.44;4952977;28;20608;-57
2022/03/20 08:22:37;;;;;;;5.07;1.75;;;;;;;5.15;100.00;102105.53;4952176;28;20054;-56
2022/03/20 08:25:03;;;;;;;7.32;1.80;;;;;;;5.24;100.00;102115.38;4952030;28;20171;-59
2022/03/20 08:27:29;;;;;;;6.03;2.55;;;;;;;5.35;100.00;102108.47;4951446;28;20157;-57
2022/03/20 08:29:56;;;;;;;7.53;2.25;;;;;;;5.42;100.00;102104.38;4950383;28;20107;-56
2022/03/20 08:32:22;;;;;;;7.28;1.92;;;;;;;5.56;100.00;102100.72;4952660;28;20027;-56
2022/03/20 08:34:47;;;;;;;2.97;0.93;;;;;;;5.62;100.00;102092.31;4948476;28;20464;-56
2022/03/20 08:37:14;;;;;;;10.25;2.58;;;;;;;5.71;100.00;102093.41;4961575;28;20035;-57
2022/03/20 08:39:39;;;;;;;13.55;2.70;;;;;;;5.86;100.00;102098.31;4948452;28;20046;-56
2022/03/20 08:42:06;;;;;;;6.53;2.95;;;;;;;6.02;100.00;102090.06;4950462;28;20039;-59
2022/03/20 08:44:31;;;;;;;13.20;1.55;;;;;;;6.15;100.00;102099.63;4951866;28;20027;-53
2022/03/20 08:46:56;;;;;;;5.00;3.58;;;;;;;6.31;100.00;102086.91;4951173;28;20045;-58
2022/03/20 08:49:22;;;;;;;3.95;1.90;;;;;;;6.66;100.00;102084.03;4947693;28;20039;-54
2022/03/20 08:51:47;;;;;;;3.08;1.63;;;;;;;7.22;100.00;102074.97;4952252;28;20042;-52
2022/03/20 08:54:12;;;;;;;9.65;2.35;;;;;;;7.43;100.00;102082.84;4948476;28;20035;-56
2022/03/20 08:56:39;;;;;;;5.40;1.88;;;;;;;7.16;100.00;102072.88;4946912;28;20051;-59
2022/03/20 08:59:06;;;;;;;12.30;2.78;;;;;;;6.94;100.00;102058.84;4948761;28;20061;-59
2022/03/20 09:01:32;;;;;;;7.55;2.55;;;;;;;6.94;100.00;102065.91;4946869;28;20381;-58
2022/03/20 09:03:57;;;;;;;5.15;2.35;;;;;;;7.06;100.00;102066.69;4957890;28;20213;-57
2022/03/20 09:06:22;;;;;;;2.90;1.35;;;;;;;7.11;100.00;102067.97;4947150;28;20519;-57
2022/03/20 09:08:49;;;;;;;4.07;1.55;;;;;;;7.11;100.00;102061.88;4947331;28;20515;-58
2022/03/20 09:11:16;;;;;;;7.90;2.10;;;;;;;7.19;100.00;102054.97;4947441;28;20039;-60
2022/03/20 09:13:41;;;;;;;5.25;2.10;;;;;;;7.33;100.00;102066.13;4948882;28;20035;-57
2022/03/20 09:19:00;;;;;;;7.03;2.20;;;;;;;7.54;100.00;102050.28;4955700;28;20033;-57
2022/03/20 09:21:31;;;;;;;6.07;2.13;;;;;;;7.53;100.00;102053.88;4956262;28;20528;-60
2022/03/20 09:23:57;;;;;;;8.18;1.42;;;;;;;7.60;100.00;102042.66;4964328;28;20039;-58
2022/03/20 09:26:22;;;;;;;6.00;1.70;;;;;;;7.61;100.00;102051.41;4963250;28;20026;-57
2022/03/20 09:28:47;;;;;;;3.58;1.92;;;;;;;7.72;100.00;102042.53;4951755;28;20031;-58
2022/03/20 09:31:15;;;;;;;5.93;2.30;;;;;;;8.00;100.00;102038.31;4949905;28;20623;-59
2022/03/20 09:33:41;;;;;;;6.88;2.65;;;;;;;8.30;100.00;102042.69;4951417;28;20119;-60
2022/03/20 09:36:06;;;;;;;4.45;1.95;;;;;;;8.45;100.00;102035.22;4948025;28;20027;-60
2022/03/20 09:38:32;;;;;;;5.32;2.55;;;;;;;8.55;100.00;102033.41;4953120;28;20455;-58
2022/03/20 09:41:03;;;;;;;3.33;1.55;;;;;;;8.79;100.00;102037.41;4947953;28;20484;-60
2022/03/20 09:43:31;;;;;;;1.40;1.23;;;;;;;8.91;100.00;102031.84;4948075;28;20132;-57
2022/03/20 09:45:57;;;;;;;9.23;2.47;;;;;;;8.66;100.00;102027.13;4945101;28;20042;-60
2022/03/20 09:48:22;;;;;;;3.20;1.98;;;;;;;8.49;100.00;102026.88;4948373;28;20039;-59
2022/03/20 09:50:49;;;;;;;3.75;2.35;;;;;;;8.19;100.00;102021.69;4953596;28;20027;-59
2022/03/20 09:53:15;;;;;;;10.07;2.33;;;;;;;7.96;100.00;102023.72;4953668;28;20051;-60
2022/03/20 09:55:40;;;;;;;4.38;2.25;;;;;;;7.88;100.00;102019.13;4950179;28;20110;-58
2022/03/20 09:58:05;;;;;;;12.02;2.55;;;;;;;8.06;100.00;102012.19;4951456;28;20366;-59
2022/03/20 10:00:32;;;;;;;5.18;2.65;;;;;;;8.44;100.00;102002.66;4948537;28;20038;-58
2022/03/20 10:02:57;;;;;;;8.38;2.30;;;;;;;8.74;100.00;102006.94;4950856;28;20144;-60
2022/03/20 10:05:27;;;;;;;6.13;2.40;;;;;;;9.01;100.00;102001.84;4949522;28;20477;-59
2022/03/20 10:07:52;;;;;;;11.75;2.45;;;;;;;9.19;100.00;101992.22;4948052;28;20059;-56
2022/03/20 10:10:22;;;;;;;2.42;1.40;;;;;;;9.32;100.00;101986.56;4946741;28;20114;-60
2022/03/20 10:12:59;;;;;;;8.23;2.15;;;;;;;9.26;100.00;101980.03;4945710;28;20061;-58
2022/03/20 10:15:34;;;;;;;4.45;2.35;;;;;;;9.29;100.00;101978.91;4948323;28;20035;-61
2022/03/20 10:18:10;;;;;;;3.15;1.48;;;;;;;9.09;100.00;101984.31;4951923;28;20210;-59
2022/03/20 10:20:46;;;;;;;5.93;1.50;;;;;;;9.20;100.00;101983.28;4947926;28;20038;-61
2022/03/20 10:23:41;;;;;;;3.20;1.27;;;;;;;9.72;100.00;101965.03;4952739;28;20527;-59
2022/03/20 10:26:12;;;;;;;11.00;1.92;;;;;;;10.32;100.00;101958.34;4951396;28;20042;-62
2022/03/20 10:28:40;;;;;;;4.93;2.22;;;;;;;10.55;100.00;101954.22;4948536;28;20123;-61
2022/03/20 10:31:09;;;;;;;6.28;1.45;;;;;;;10.64;100.00;101955.94;4944579;28;20047;-63
2022/03/20 10:33:38;;;;;;;8.93;3.00;;;;;;;10.19;100.00;101958.69;4950311;28;20490;-62
2022/03/20 10:36:13;;;;;;;7.57;3.33;;;;;;;9.83;100.00;101948.09;4948611;28;20138;-59
2022/03/20 10:38:39;;;;;;;6.32;2.88;;;;;;;9.84;100.00;101941.84;4949285;28;20038;-62
2022/03/20 10:41:17;;;;;;;10.05;2.17;;;;;;;9.44;100.00;101945.69;4947663;28;20035;-62
2022/03/20 10:43:43;;;;;;;4.97;1.60;;;;;;;9.04;100.00;101940.75;4946372;28;20094;-62
2022/03/20 10:46:17;;;;;;;4.63;1.98;;;;;;;9.28;100.00;101943.69;4947593;28;20504;-60
2022/03/20 10:48:44;;;;;;;4.97;2.13;;;;;;;9.45;100.00;101946.50;4945100;28;20042;-60
2022/03/20 10:51:10;;;;;;;5.13;1.90;;;;;;;9.60;100.00;101935.31;4944400;28;20043;-59
2022/03/20 10:53:50;;;;;;;6.65;2.30;;;;;;;9.37;100.00;101937.53;4949261;28;20042;-59
2022/03/20 10:56:16;;;;;;;5.82;2.95;;;;;;;9.45;100.00;101930.63;4950665;28;20089;-59
2022/03/20 10:58:42;;;;;;;5.75;2.80;;;;;;;9.22;100.00;101933.69;4956511;28;20054;-59
2022/03/20 11:01:08;;;;;;;4.13;1.85;;;;;;;9.22;100.00;101941.63;4958615;28;20062;-61
2022/03/20 11:03:39;;;;;;;6.35;2.95;;;;;;;9.01;100.00;101943.66;4954821;28;20053;-59
2022/03/20 11:06:08;;;;;;;3.17;2.27;;;;;;;9.08;100.00;101934.16;4967025;28;20061;-60
2022/03/20 11:08:36;;;;;;;5.35;2.90;;;;;;;9.79;100.00;101922.91;4954369;28;20038;-60
2022/03/20 11:11:02;;;;;;;3.83;2.17;;;;;;;10.37;100.00;101927.72;4958201;28;20062;-60
2022/03/20 11:13:28;;;;;;;3.95;2.25;;;;;;;10.87;100.00;101921.78;4954271;28;20049;-57
2022/03/20 11:15:57;;;;;;;4.82;2.58;;;;;;;10.77;100.00;101934.31;4962187;28;20504;-60
2022/03/20 11:18:25;;;;;;;9.18;2.92;;;;;;;10.13;100.00;101931.00;4957483;28;20424;-61
2022/03/20 11:20:52;;;;;;;6.70;2.92;;;;;;;9.70;100.00;101932.56;4957166;28;20023;-60
2022/03/20 11:23:18;;;;;;;8.18;3.53;;;;;;;9.39;100.00;101921.47;4960892;28;20033;-62
2022/03/20 11:25:45;;;;;;;8.10;3.60;;;;;;;9.12;100.00;101924.97;4958833;28;20496;-57
2022/03/20 11:28:14;;;;;;;6.60;2.53;;;;;;;9.52;100.00;101918.47;4951498;28;20058;-61
2022/03/20 11:30:41;;;;;;;5.60;2.33;;;;;;;10.28;100.00;101917.25;4946582;28;20023;-62
2022/03/20 11:33:09;;;;;;;5.78;2.38;;;;;;;11.02;100.00;101900.78;4947142;28;20042;-60
2022/03/20 11:35:36;;;;;;;3.90;2.08;;;;;;;11.54;100.00;101902.44;4950795;28;20034;-62
2022/03/20 11:38:20;;;;;;;8.52;3.08;;;;;;;11.72;100.00;101903.16;4950548;28;20030;-59
2022/03/20 11:41:08;;;;;;;12.27;3.00;;;;;;;11.79;100.00;101903.31;4949843;28;20057;-63
2022/03/20 11:43:38;;;;;;;9.63;2.58;;;;;;;12.09;100.00;101906.38;4946535;28;20031;-63
2022/03/20 11:46:27;;;;;;;6.63;2.45;;;;;;;12.18;100.00;101914.19;4951885;28;20035;-62
2022/03/20 11:49:29;;;;;;;8.15;3.03;;;;;;;12.25;100.00;101905.53;4948279;28;20073;-62
2022/03/20 11:51:54;;;;;;;;;;;;;;;12.38;97.29;101908.50;4960033;28;20054;-63
2022/03/20 11:54:20;;;;;;;7.97;3.70;;;;;;;12.30;100.00;101909.34;4948654;28;19926;-63
2022/03/20 11:56:45;;;;;;;9.43;3.80;;;;;;;12.33;100.00;101906.34;4948226;28;20035;-63
2022/03/20 12:00:00;;;;;;;10.15;3.53;;;;;;;11.99;94.54;101903.88;4952560;28;20110;-63